Haverhill, Massachusetts
Traffic Map
Current Weather Conditions
Haverhill, Massachusetts
Clear
Clear
77°
Feels Like: 79°
Wind Chill: 77° Ceiling: Unl
Heat Index: 79° Visibility: 10mi
Dew Point: 60° Wind: 13mph
Humidity: 56% Direction: 310° (NW)
Pressure: 29.95in Gusts: 25mph
Raw Report DataKLWM 161354Z 31011G22KT 10SM CLR 25/16 A2995 RMK AO2 SLP141 T02500156
Traffic Incident Summary
Active as of:
Severity:
Category:
InformationThere was an issue retrieving the traffic information for this location. Please try a different location or try again shortly.
Advertisements